sensor_id;sensor_type;location;lat;lon;timestamp;pressure;altitude;pressure_sealevel;temperature
78905;BMP280;68291;49.602;8.722;2023-04-25T00:02:02;98965.16;;;10.71
78905;BMP280;68291;49.602;8.722;2023-04-25T00:04:37;98960.00;;;10.71
78905;BMP280;68291;49.602;8.722;2023-04-25T00:07:19;98959.66;;;10.77
78905;BMP280;68291;49.602;8.722;2023-04-25T00:10:09;98954.38;;;10.80
78905;BMP280;68291;49.602;8.722;2023-04-25T00:12:53;98958.41;;;10.84
78905;BMP280;68291;49.602;8.722;2023-04-25T00:15:32;98955.69;;;10.87
78905;BMP280;68291;49.602;8.722;2023-04-25T00:18:04;98965.00;;;10.90
78905;BMP280;68291;49.602;8.722;2023-04-25T00:20:52;98954.50;;;10.93
78905;BMP280;68291;49.602;8.722;2023-04-25T00:23:25;98958.50;;;10.98
78905;BMP280;68291;49.602;8.722;2023-04-25T00:26:10;98962.56;;;11.02
78905;BMP280;68291;49.602;8.722;2023-04-25T00:29:00;98965.91;;;11.04
78905;BMP280;68291;49.602;8.722;2023-04-25T00:31:57;98960.75;;;11.04
78905;BMP280;68291;49.602;8.722;2023-04-25T00:34:44;98961.63;;;11.03
78905;BMP280;68291;49.602;8.722;2023-04-25T00:37:31;98959.81;;;11.05
78905;BMP280;68291;49.602;8.722;2023-04-25T00:40:25;98959.00;;;11.04
78905;BMP280;68291;49.602;8.722;2023-04-25T00:43:09;98953.00;;;11.04
78905;BMP280;68291;49.602;8.722;2023-04-25T00:45:43;98950.50;;;11.02
78905;BMP280;68291;49.602;8.722;2023-04-25T00:48:29;98947.13;;;11.02
78905;BMP280;68291;49.602;8.722;2023-04-25T00:51:17;98945.63;;;10.98
78905;BMP280;68291;49.602;8.722;2023-04-25T00:54:08;98941.56;;;10.94
78905;BMP280;68291;49.602;8.722;2023-04-25T00:57:09;98943.63;;;10.88
78905;BMP280;68291;49.602;8.722;2023-04-25T01:00:11;98936.91;;;10.85
78905;BMP280;68291;49.602;8.722;2023-04-25T01:02:46;98943.56;;;10.89
78905;BMP280;68291;49.602;8.722;2023-04-25T01:05:23;98932.88;;;10.95
78905;BMP280;68291;49.602;8.722;2023-04-25T01:07:56;98932.56;;;11.01
78905;BMP280;68291;49.602;8.722;2023-04-25T01:10:27;98942.59;;;11.05
78905;BMP280;68291;49.602;8.722;2023-04-25T01:13:00;98937.19;;;11.10
78905;BMP280;68291;49.602;8.722;2023-04-25T01:15:53;98933.38;;;11.17
78905;BMP280;68291;49.602;8.722;2023-04-25T01:18:42;98935.75;;;11.20
78905;BMP280;68291;49.602;8.722;2023-04-25T01:22:01;98942.41;;;11.24
78905;BMP280;68291;49.602;8.722;2023-04-25T01:24:40;98931.91;;;11.27
78905;BMP280;68291;49.602;8.722;2023-04-25T01:27:25;98929.06;;;11.31
78905;BMP280;68291;49.602;8.722;2023-04-25T01:30:08;98927.06;;;11.36
78905;BMP280;68291;49.602;8.722;2023-04-25T01:32:47;98925.34;;;11.36
78905;BMP280;68291;49.602;8.722;2023-04-25T01:35:31;98919.16;;;11.39
78905;BMP280;68291;49.602;8.722;2023-04-25T01:38:08;98925.00;;;11.42
78905;BMP280;68291;49.602;8.722;2023-04-25T01:40:41;98924.25;;;11.40
78905;BMP280;68291;49.602;8.722;2023-04-25T01:43:14;98931.97;;;11.40
78905;BMP280;68291;49.602;8.722;2023-04-25T01:45:48;98923.50;;;11.38
78905;BMP280;68291;49.602;8.722;2023-04-25T01:48:32;98924.13;;;11.42
78905;BMP280;68291;49.602;8.722;2023-04-25T01:51:10;98932.78;;;11.41
78905;BMP280;68291;49.602;8.722;2023-04-25T01:54:10;98926.97;;;11.37
78905;BMP280;68291;49.602;8.722;2023-04-25T01:56:57;98934.16;;;11.32
78905;BMP280;68291;49.602;8.722;2023-04-25T01:59:45;98928.31;;;11.29
78905;BMP280;68291;49.602;8.722;2023-04-25T02:02:58;98930.91;;;11.29
78905;BMP280;68291;49.602;8.722;2023-04-25T02:05:41;98928.25;;;11.30
78905;BMP280;68291;49.602;8.722;2023-04-25T02:08:18;98924.75;;;11.31
78905;BMP280;68291;49.602;8.722;2023-04-25T02:10:54;98931.66;;;11.31
78905;BMP280;68291;49.602;8.722;2023-04-25T02:13:42;98933.66;;;11.26
78905;BMP280;68291;49.602;8.722;2023-04-25T02:16:39;98935.31;;;11.27
78905;BMP280;68291;49.602;8.722;2023-04-25T02:19:10;98930.28;;;11.26
78905;BMP280;68291;49.602;8.722;2023-04-25T02:21:42;98929.59;;;11.22
78905;BMP280;68291;49.602;8.722;2023-04-25T02:24:38;98925.47;;;11.20
78905;BMP280;68291;49.602;8.722;2023-04-25T02:27:18;98926.00;;;11.11
78905;BMP280;68291;49.602;8.722;2023-04-25T02:29:58;98912.13;;;10.98
78905;BMP280;68291;49.602;8.722;2023-04-25T02:32:49;98920.50;;;11.01
78905;BMP280;68291;49.602;8.722;2023-04-25T02:35:39;98914.38;;;11.04
78905;BMP280;68291;49.602;8.722;2023-04-25T02:38:37;98918.94;;;10.99
78905;BMP280;68291;49.602;8.722;2023-04-25T02:41:31;98917.56;;;10.93
78905;BMP280;68291;49.602;8.722;2023-04-25T02:44:46;98920.28;;;10.91
78905;BMP280;68291;49.602;8.722;2023-04-25T02:47:36;98914.38;;;10.89
78905;BMP280;68291;49.602;8.722;2023-04-25T02:50:09;98919.63;;;10.87
78905;BMP280;68291;49.602;8.722;2023-04-25T02:52:54;98918.13;;;10.83
78905;BMP280;68291;49.602;8.722;2023-04-25T02:55:39;98919.97;;;10.81
78905;BMP280;68291;49.602;8.722;2023-04-25T02:58:15;98912.44;;;10.78
78905;BMP280;68291;49.602;8.722;2023-04-25T03:01:08;98917.72;;;10.75
78905;BMP280;68291;49.602;8.722;2023-04-25T03:03:41;98916.97;;;10.73
78905;BMP280;68291;49.602;8.722;2023-04-25T03:06:23;98912.84;;;10.71
78905;BMP280;68291;49.602;8.722;2023-04-25T03:08:55;98916.97;;;10.73
78905;BMP280;68291;49.602;8.722;2023-04-25T03:11:34;98910.19;;;10.72
78905;BMP280;68291;49.602;8.722;2023-04-25T03:14:12;98912.91;;;10.69
78905;BMP280;68291;49.602;8.722;2023-04-25T03:17:26;98913.50;;;10.74
78905;BMP280;68291;49.602;8.722;2023-04-25T03:20:08;98915.75;;;10.80
78905;BMP280;68291;49.602;8.722;2023-04-25T03:22:59;98917.13;;;10.86
78905;BMP280;68291;49.602;8.722;2023-04-25T03:25:31;98913.56;;;10.88
78905;BMP280;68291;49.602;8.722;2023-04-25T03:28:06;98916.81;;;10.92
78905;BMP280;68291;49.602;8.722;2023-04-25T03:30:47;98909.63;;;10.96
78905;BMP280;68291;49.602;8.722;2023-04-25T03:33:55;98915.34;;;11.01
78905;BMP280;68291;49.602;8.722;2023-04-25T03:36:26;98909.22;;;11.04
78905;BMP280;68291;49.602;8.722;2023-04-25T03:39:10;98916.03;;;11.05
78905;BMP280;68291;49.602;8.722;2023-04-25T03:41:57;98909.22;;;11.04
78905;BMP280;68291;49.602;8.722;2023-04-25T03:44:33;98918.41;;;11.08
78905;BMP280;68291;49.602;8.722;2023-04-25T03:47:04;98913.25;;;11.08
78905;BMP280;68291;49.602;8.722;2023-04-25T03:50:21;98925.81;;;11.14
78905;BMP280;68291;49.602;8.722;2023-04-25T03:53:17;98915.41;;;11.15
78905;BMP280;68291;49.602;8.722;2023-04-25T03:56:24;98911.09;;;11.16
78905;BMP280;68291;49.602;8.722;2023-04-25T03:59:09;98912.56;;;11.20
78905;BMP280;68291;49.602;8.722;2023-04-25T04:01:43;98916.72;;;11.22
78905;BMP280;68291;49.602;8.722;2023-04-25T04:04:29;98920.72;;;11.27
78905;BMP280;68291;49.602;8.722;2023-04-25T04:07:19;98927.50;;;11.28
78905;BMP280;68291;49.602;8.722;2023-04-25T04:10:10;98932.00;;;11.25
78905;BMP280;68291;49.602;8.722;2023-04-25T04:12:57;98926.38;;;11.19
78905;BMP280;68291;49.602;8.722;2023-04-25T04:15:32;98932.38;;;11.19
78905;BMP280;68291;49.602;8.722;2023-04-25T04:18:11;98924.53;;;11.21
78905;BMP280;68291;49.602;8.722;2023-04-25T04:20:50;98927.69;;;11.26
78905;BMP280;68291;49.602;8.722;2023-04-25T04:23:30;98923.28;;;11.27
78905;BMP280;68291;49.602;8.722;2023-04-25T04:26:14;98936.88;;;11.29
78905;BMP280;68291;49.602;8.722;2023-04-25T04:29:19;98937.81;;;11.28
78905;BMP280;68291;49.602;8.722;2023-04-25T04:32:02;98935.63;;;11.36
78905;BMP280;68291;49.602;8.722;2023-04-25T04:34:57;98936.47;;;11.37
78905;BMP280;68291;49.602;8.722;2023-04-25T04:37:33;98944.13;;;11.38
78905;BMP280;68291;49.602;8.722;2023-04-25T04:40:24;98950.84;;;11.41
78905;BMP280;68291;49.602;8.722;2023-04-25T04:43:05;98943.78;;;11.44
78905;BMP280;68291;49.602;8.722;2023-04-25T04:46:06;98948.84;;;11.46
78905;BMP280;68291;49.602;8.722;2023-04-25T04:49:11;98952.44;;;11.43
78905;BMP280;68291;49.602;8.722;2023-04-25T04:52:15;98952.75;;;11.37
78905;BMP280;68291;49.602;8.722;2023-04-25T04:55:24;98953.19;;;11.30
78905;BMP280;68291;49.602;8.722;2023-04-25T04:58:24;98949.97;;;11.27
78905;BMP280;68291;49.602;8.722;2023-04-25T05:01:25;98959.38;;;11.27
78905;BMP280;68291;49.602;8.722;2023-04-25T05:04:29;98959.09;;;11.32
78905;BMP280;68291;49.602;8.722;2023-04-25T05:07:22;98962.31;;;11.35
78905;BMP280;68291;49.602;8.722;2023-04-25T05:10:17;98961.22;;;11.39
78905;BMP280;68291;49.602;8.722;2023-04-25T05:13:39;98969.72;;;11.41
78905;BMP280;68291;49.602;8.722;2023-04-25T05:16:40;98968.56;;;11.47
78905;BMP280;68291;49.602;8.722;2023-04-25T05:19:39;98982.28;;;11.47
78905;BMP280;68291;49.602;8.722;2023-04-25T05:22:36;98976.03;;;11.51
78905;BMP280;68291;49.602;8.722;2023-04-25T05:25:33;98975.03;;;11.54
78905;BMP280;68291;49.602;8.722;2023-04-25T05:28:24;98979.19;;;11.56
78905;BMP280;68291;49.602;8.722;2023-04-25T05:31:27;98983.41;;;11.57
78905;BMP280;68291;49.602;8.722;2023-04-25T05:34:08;98979.72;;;11.61
78905;BMP280;68291;49.602;8.722;2023-04-25T05:37:07;98982.16;;;11.64
78905;BMP280;68291;49.602;8.722;2023-04-25T05:39:48;98978.44;;;11.68
78905;BMP280;68291;49.602;8.722;2023-04-25T05:42:45;98980.06;;;11.70
78905;BMP280;68291;49.602;8.722;2023-04-25T05:45:52;98984.94;;;11.75
78905;BMP280;68291;49.602;8.722;2023-04-25T05:48:53;98979.59;;;11.78
78905;BMP280;68291;49.602;8.722;2023-04-25T05:51:59;98979.59;;;11.78
78905;BMP280;68291;49.602;8.722;2023-04-25T05:55:07;98982.91;;;11.80
78905;BMP280;68291;49.602;8.722;2023-04-25T05:57:56;98981.81;;;11.84
78905;BMP280;68291;49.602;8.722;2023-04-25T06:00:29;98991.75;;;11.90
78905;BMP280;68291;49.602;8.722;2023-04-25T06:03:21;98990.66;;;11.94
78905;BMP280;68291;49.602;8.722;2023-04-25T06:05:54;98996.28;;;12.00
78905;BMP280;68291;49.602;8.722;2023-04-25T06:08:35;98994.91;;;12.08
78905;BMP280;68291;49.602;8.722;2023-04-25T06:11:19;98999.66;;;12.16
78905;BMP280;68291;49.602;8.722;2023-04-25T06:14:15;98993.94;;;12.25
78905;BMP280;68291;49.602;8.722;2023-04-25T06:16:53;98992.81;;;12.29
78905;BMP280;68291;49.602;8.722;2023-04-25T06:19:25;98991.69;;;12.19
78905;BMP280;68291;49.602;8.722;2023-04-25T06:22:09;98995.38;;;12.15
78905;BMP280;68291;49.602;8.722;2023-04-25T06:25:03;99003.41;;;12.10
78905;BMP280;68291;49.602;8.722;2023-04-25T06:27:59;99007.47;;;12.00
78905;BMP280;68291;49.602;8.722;2023-04-25T06:30:52;99010.19;;;11.97
78905;BMP280;68291;49.602;8.722;2023-04-25T06:33:24;99010.41;;;11.95
78905;BMP280;68291;49.602;8.722;2023-04-25T06:36:21;99011.69;;;11.88
78905;BMP280;68291;49.602;8.722;2023-04-25T06:39:00;99012.50;;;11.88
78905;BMP280;68291;49.602;8.722;2023-04-25T06:41:38;99010.47;;;11.93
78905;BMP280;68291;49.602;8.722;2023-04-25T06:44:30;99018.13;;;11.95
78905;BMP280;68291;49.602;8.722;2023-04-25T06:47:01;99013.59;;;11.98
78905;BMP280;68291;49.602;8.722;2023-04-25T06:49:33;99011.41;;;12.06
78905;BMP280;68291;49.602;8.722;2023-04-25T06:52:19;99010.13;;;12.13
78905;BMP280;68291;49.602;8.722;2023-04-25T06:55:01;99013.91;;;12.21
78905;BMP280;68291;49.602;8.722;2023-04-25T06:57:55;99018.72;;;12.27
78905;BMP280;68291;49.602;8.722;2023-04-25T07:00:58;99020.19;;;12.31
78905;BMP280;68291;49.602;8.722;2023-04-25T07:03:34;99023.41;;;12.34
78905;BMP280;68291;49.602;8.722;2023-04-25T07:06:19;99015.31;;;12.40
78905;BMP280;68291;49.602;8.722;2023-04-25T07:09:10;99024.78;;;12.54
78905;BMP280;68291;49.602;8.722;2023-04-25T07:12:19;99025.91;;;12.64
78905;BMP280;68291;49.602;8.722;2023-04-25T07:15:12;99025.13;;;12.75
78905;BMP280;68291;49.602;8.722;2023-04-25T07:18:02;99030.78;;;12.82
78905;BMP280;68291;49.602;8.722;2023-04-25T07:21:06;99027.09;;;12.86
78905;BMP280;68291;49.602;8.722;2023-04-25T07:23:57;99022.50;;;12.91
78905;BMP280;68291;49.602;8.722;2023-04-25T07:26:35;99025.16;;;12.89
78905;BMP280;68291;49.602;8.722;2023-04-25T07:29:32;99030.94;;;12.93
78905;BMP280;68291;49.602;8.722;2023-04-25T07:32:06;99033.28;;;12.97
78905;BMP280;68291;49.602;8.722;2023-04-25T07:34:52;99041.19;;;12.94
78905;BMP280;68291;49.602;8.722;2023-04-25T07:37:30;99045.91;;;12.88
78905;BMP280;68291;49.602;8.722;2023-04-25T07:40:29;99040.75;;;12.88
78905;BMP280;68291;49.602;8.722;2023-04-25T07:43:24;99042.59;;;12.86
78905;BMP280;68291;49.602;8.722;2023-04-25T07:46:47;99045.09;;;12.87
78905;BMP280;68291;49.602;8.722;2023-04-25T07:49:27;99047.41;;;12.92
78905;BMP280;68291;49.602;8.722;2023-04-25T07:51:57;99045.63;;;12.92
78905;BMP280;68291;49.602;8.722;2023-04-25T07:54:42;99051.28;;;12.85
78905;BMP280;68291;49.602;8.722;2023-04-25T07:57:29;99054.91;;;12.82
78905;BMP280;68291;49.602;8.722;2023-04-25T08:00:09;99066.47;;;12.75
78905;BMP280;68291;49.602;8.722;2023-04-25T08:03:09;99076.63;;;12.64
78905;BMP280;68291;49.602;8.722;2023-04-25T08:06:10;99077.84;;;12.59
78905;BMP280;68291;49.602;8.722;2023-04-25T08:09:06;99071.13;;;12.57
78905;BMP280;68291;49.602;8.722;2023-04-25T08:11:46;99071.13;;;12.57
78905;BMP280;68291;49.602;8.722;2023-04-25T08:14:36;99081.25;;;12.60
78905;BMP280;68291;49.602;8.722;2023-04-25T08:17:12;99087.03;;;12.49
78905;BMP280;68291;49.602;8.722;2023-04-25T08:19:53;99095.81;;;12.33
78905;BMP280;68291;49.602;8.722;2023-04-25T08:22:30;99097.66;;;12.31
78905;BMP280;68291;49.602;8.722;2023-04-25T08:25:23;99106.13;;;12.47
78905;BMP280;68291;49.602;8.722;2023-04-25T08:27:59;99102.25;;;12.54
78905;BMP280;68291;49.602;8.722;2023-04-25T08:30:32;99106.41;;;12.56
78905;BMP280;68291;49.602;8.722;2023-04-25T08:33:07;99105.59;;;12.56
78905;BMP280;68291;49.602;8.722;2023-04-25T08:36:18;99110.41;;;12.62
78905;BMP280;68291;49.602;8.722;2023-04-25T08:39:28;99114.84;;;12.73
78905;BMP280;68291;49.602;8.722;2023-04-25T08:42:24;99110.59;;;12.86
78905;BMP280;68291;49.602;8.722;2023-04-25T08:45:02;99120.00;;;13.01
78905;BMP280;68291;49.602;8.722;2023-04-25T08:47:43;99120.00;;;13.15
78905;BMP280;68291;49.602;8.722;2023-04-25T08:50:39;99125.34;;;13.26
78905;BMP280;68291;49.602;8.722;2023-04-25T08:53:19;99127.84;;;13.27
78905;BMP280;68291;49.602;8.722;2023-04-25T08:55:56;99135.16;;;13.07
78905;BMP280;68291;49.602;8.722;2023-04-25T08:58:38;99136.28;;;12.89
78905;BMP280;68291;49.602;8.722;2023-04-25T09:01:33;99142.34;;;12.88
78905;BMP280;68291;49.602;8.722;2023-04-25T09:04:31;99152.88;;;12.99
78905;BMP280;68291;49.602;8.722;2023-04-25T09:07:04;99154.44;;;13.15
78905;BMP280;68291;49.602;8.722;2023-04-25T09:10:00;99153.94;;;13.36
78905;BMP280;68291;49.602;8.722;2023-04-25T09:12:43;99158.25;;;13.50
78905;BMP280;68291;49.602;8.722;2023-04-25T09:15:33;99163.63;;;13.47
78905;BMP280;68291;49.602;8.722;2023-04-25T09:19:23;99169.84;;;13.44
78905;BMP280;68291;49.602;8.722;2023-04-25T09:22:24;99166.91;;;13.63
78905;BMP280;68291;49.602;8.722;2023-04-25T09:25:12;99170.41;;;13.75
78905;BMP280;68291;49.602;8.722;2023-04-25T09:27:52;99173.34;;;13.83
78905;BMP280;68291;49.602;8.722;2023-04-25T09:30:41;99175.47;;;13.77
78905;BMP280;68291;49.602;8.722;2023-04-25T09:33:38;99169.78;;;13.58
78905;BMP280;68291;49.602;8.722;2023-04-25T09:36:29;99180.44;;;13.54
78905;BMP280;68291;49.602;8.722;2023-04-25T09:39:13;99182.00;;;13.56
78905;BMP280;68291;49.602;8.722;2023-04-25T09:42:22;99181.94;;;13.70
78905;BMP280;68291;49.602;8.722;2023-04-25T09:45:18;99189.25;;;13.77
78905;BMP280;68291;49.602;8.722;2023-04-25T09:48:04;99190.03;;;13.92
78905;BMP280;68291;49.602;8.722;2023-04-25T09:50:44;99185.66;;;14.06
78905;BMP280;68291;49.602;8.722;2023-04-25T09:53:30;99192.34;;;14.22
78905;BMP280;68291;49.602;8.722;2023-04-25T09:56:15;99190.81;;;14.32
78905;BMP280;68291;49.602;8.722;2023-04-25T09:59:15;99187.28;;;14.33
78905;BMP280;68291;49.602;8.722;2023-04-25T10:01:50;99184.66;;;14.21
78905;BMP280;68291;49.602;8.722;2023-04-25T10:04:35;99190.56;;;14.23
78905;BMP280;68291;49.602;8.722;2023-04-25T10:07:34;99183.63;;;14.23
78905;BMP280;68291;49.602;8.722;2023-04-25T10:10:30;99189.97;;;14.32
78905;BMP280;68291;49.602;8.722;2023-04-25T10:13:10;99188.34;;;14.43
78905;BMP280;68291;49.602;8.722;2023-04-25T10:15:57;99202.25;;;14.67
78905;BMP280;68291;49.602;8.722;2023-04-25T10:18:33;99178.75;;;14.82
78905;BMP280;68291;49.602;8.722;2023-04-25T10:21:15;99194.63;;;14.77
78905;BMP280;68291;49.602;8.722;2023-04-25T10:24:05;99195.63;;;14.75
78905;BMP280;68291;49.602;8.722;2023-04-25T10:26:43;99204.66;;;14.70
78905;BMP280;68291;49.602;8.722;2023-04-25T10:29:26;99205.41;;;14.72
78905;BMP280;68291;49.602;8.722;2023-04-25T10:32:09;99204.97;;;14.65
78905;BMP280;68291;49.602;8.722;2023-04-25T10:34:49;99204.03;;;14.66
78905;BMP280;68291;49.602;8.722;2023-04-25T10:37:58;99217.81;;;14.67
78905;BMP280;68291;49.602;8.722;2023-04-25T10:40:35;99207.03;;;14.72
78905;BMP280;68291;49.602;8.722;2023-04-25T10:43:40;99212.22;;;14.72
78905;BMP280;68291;49.602;8.722;2023-04-25T10:46:22;99210.88;;;14.79
78905;BMP280;68291;49.602;8.722;2023-04-25T10:49:31;99214.13;;;14.95
78905;BMP280;68291;49.602;8.722;2023-04-25T10:52:18;99216.38;;;14.87
78905;BMP280;68291;49.602;8.722;2023-04-25T10:55:09;99221.88;;;14.71
78905;BMP280;68291;49.602;8.722;2023-04-25T10:58:09;99223.81;;;14.55
78905;BMP280;68291;49.602;8.722;2023-04-25T11:01:06;99227.34;;;14.54
78905;BMP280;68291;49.602;8.722;2023-04-25T11:04:00;99222.34;;;14.51
78905;BMP280;68291;49.602;8.722;2023-04-25T11:07:15;99229.50;;;14.47
78905;BMP280;68291;49.602;8.722;2023-04-25T11:10:11;99232.31;;;14.57
78905;BMP280;68291;49.602;8.722;2023-04-25T11:12:53;99228.09;;;14.68
78905;BMP280;68291;49.602;8.722;2023-04-25T11:15:23;99226.31;;;14.69
78905;BMP280;68291;49.602;8.722;2023-04-25T11:17:55;99234.50;;;14.63
78905;BMP280;68291;49.602;8.722;2023-04-25T11:20:44;99238.53;;;14.54
78905;BMP280;68291;49.602;8.722;2023-04-25T11:23:32;99241.38;;;14.38
78905;BMP280;68291;49.602;8.722;2023-04-25T11:26:13;99253.56;;;14.23
78905;BMP280;68291;49.602;8.722;2023-04-25T11:29:00;99254.53;;;14.08
78905;BMP280;68291;49.602;8.722;2023-04-25T11:31:37;99254.75;;;13.92
78905;BMP280;68291;49.602;8.722;2023-04-25T11:34:17;99262.81;;;13.87
78905;BMP280;68291;49.602;8.722;2023-04-25T11:36:55;99253.06;;;13.91
78905;BMP280;68291;49.602;8.722;2023-04-25T11:39:47;99262.88;;;14.00
78905;BMP280;68291;49.602;8.722;2023-04-25T11:42:43;99264.88;;;14.08
78905;BMP280;68291;49.602;8.722;2023-04-25T11:45:38;99255.75;;;14.29
78905;BMP280;68291;49.602;8.722;2023-04-25T11:48:19;99250.13;;;14.49
78905;BMP280;68291;49.602;8.722;2023-04-25T11:50:55;99253.81;;;14.71
78905;BMP280;68291;49.602;8.722;2023-04-25T11:53:47;99251.22;;;14.83
78905;BMP280;68291;49.602;8.722;2023-04-25T11:56:58;99262.44;;;15.08
78905;BMP280;68291;49.602;8.722;2023-04-25T11:59:35;99264.88;;;15.36
78905;BMP280;68291;49.602;8.722;2023-04-25T12:02:07;99262.78;;;15.53
78905;BMP280;68291;49.602;8.722;2023-04-25T12:05:00;99270.34;;;15.69
78905;BMP280;68291;49.602;8.722;2023-04-25T12:07:54;99258.06;;;15.83
78905;BMP280;68291;49.602;8.722;2023-04-25T12:10:40;99266.66;;;15.96
78905;BMP280;68291;49.602;8.722;2023-04-25T12:13:31;99278.03;;;15.70
78905;BMP280;68291;49.602;8.722;2023-04-25T12:16:07;99277.41;;;15.54
78905;BMP280;68291;49.602;8.722;2023-04-25T12:18:46;99278.88;;;15.46
78905;BMP280;68291;49.602;8.722;2023-04-25T12:21:30;99276.81;;;15.51
78905;BMP280;68291;49.602;8.722;2023-04-25T12:24:28;99272.72;;;15.72
78905;BMP280;68291;49.602;8.722;2023-04-25T12:27:16;99262.53;;;16.04
78905;BMP280;68291;49.602;8.722;2023-04-25T12:30:52;99254.84;;;16.38
78905;BMP280;68291;49.602;8.722;2023-04-25T12:33:28;99259.50;;;16.45
78905;BMP280;68291;49.602;8.722;2023-04-25T12:36:05;99261.69;;;16.51
78905;BMP280;68291;49.602;8.722;2023-04-25T12:38:45;99264.81;;;16.44
78905;BMP280;68291;49.602;8.722;2023-04-25T12:41:29;99263.28;;;16.42
78905;BMP280;68291;49.602;8.722;2023-04-25T12:44:08;99273.91;;;16.39
78905;BMP280;68291;49.602;8.722;2023-04-25T12:47:19;99280.75;;;16.40
78905;BMP280;68291;49.602;8.722;2023-04-25T12:50:08;99261.53;;;16.53
78905;BMP280;68291;49.602;8.722;2023-04-25T12:52:54;99278.47;;;16.58
78905;BMP280;68291;49.602;8.722;2023-04-25T12:55:26;99288.22;;;16.44
78905;BMP280;68291;49.602;8.722;2023-04-25T12:58:18;99284.88;;;16.42
78905;BMP280;68291;49.602;8.722;2023-04-25T13:01:11;99280.84;;;16.38
78905;BMP280;68291;49.602;8.722;2023-04-25T13:04:15;99290.13;;;16.30
78905;BMP280;68291;49.602;8.722;2023-04-25T13:06:50;99277.41;;;16.38
78905;BMP280;68291;49.602;8.722;2023-04-25T13:09:29;99280.44;;;16.78
78905;BMP280;68291;49.602;8.722;2023-04-25T13:12:05;99281.84;;;17.05
78905;BMP280;68291;49.602;8.722;2023-04-25T13:14:47;99274.09;;;17.38
78905;BMP280;68291;49.602;8.722;2023-04-25T13:17:33;99280.25;;;17.48
78905;BMP280;68291;49.602;8.722;2023-04-25T13:20:14;99275.75;;;17.39
78905;BMP280;68291;49.602;8.722;2023-04-25T13:23:03;99278.59;;;17.25
78905;BMP280;68291;49.602;8.722;2023-04-25T13:25:53;99282.19;;;17.12
78905;BMP280;68291;49.602;8.722;2023-04-25T13:28:39;99290.31;;;17.07
78905;BMP280;68291;49.602;8.722;2023-04-25T13:31:14;99285.59;;;17.01
78905;BMP280;68291;49.602;8.722;2023-04-25T13:34:01;99285.09;;;16.96
78905;BMP280;68291;49.602;8.722;2023-04-25T13:37:00;99287.84;;;16.72
78905;BMP280;68291;49.602;8.722;2023-04-25T13:39:51;99275.09;;;16.69
78905;BMP280;68291;49.602;8.722;2023-04-25T13:42:24;99285.22;;;17.18
78905;BMP280;68291;49.602;8.722;2023-04-25T13:45:07;99283.56;;;17.93
78905;BMP280;68291;49.602;8.722;2023-04-25T13:47:54;99286.66;;;18.09
78905;BMP280;68291;49.602;8.722;2023-04-25T13:50:39;99292.56;;;17.67
78905;BMP280;68291;49.602;8.722;2023-04-25T13:53:17;99297.53;;;17.27
78905;BMP280;68291;49.602;8.722;2023-04-25T13:55:54;99295.84;;;16.92
78905;BMP280;68291;49.602;8.722;2023-04-25T13:58:39;99301.59;;;16.74
78905;BMP280;68291;49.602;8.722;2023-04-25T14:01:14;99312.09;;;16.49
78905;BMP280;68291;49.602;8.722;2023-04-25T14:03:45;99307.88;;;16.36
78905;BMP280;68291;49.602;8.722;2023-04-25T14:06:17;99307.91;;;16.23
78905;BMP280;68291;49.602;8.722;2023-04-25T14:08:59;99313.25;;;16.09
78905;BMP280;68291;49.602;8.722;2023-04-25T14:11:46;99323.22;;;16.03
78905;BMP280;68291;49.602;8.722;2023-04-25T14:14:23;99320.13;;;15.98
78905;BMP280;68291;49.602;8.722;2023-04-25T14:17:09;99323.78;;;15.83
78905;BMP280;68291;49.602;8.722;2023-04-25T14:19:52;99334.09;;;15.73
78905;BMP280;68291;49.602;8.722;2023-04-25T14:22:35;99333.47;;;15.69
78905;BMP280;68291;49.602;8.722;2023-04-25T14:25:27;99334.28;;;15.70
78905;BMP280;68291;49.602;8.722;2023-04-25T14:28:00;99341.25;;;15.57
78905;BMP280;68291;49.602;8.722;2023-04-25T14:30:46;99346.34;;;15.58
78905;BMP280;68291;49.602;8.722;2023-04-25T14:33:29;99346.56;;;15.55
78905;BMP280;68291;49.602;8.722;2023-04-25T14:36:15;99338.13;;;15.40
78905;BMP280;68291;49.602;8.722;2023-04-25T14:38:56;99342.41;;;15.41
78905;BMP280;68291;49.602;8.722;2023-04-25T14:41:48;99343.31;;;15.40
78905;BMP280;68291;49.602;8.722;2023-04-25T14:44:32;99330.34;;;15.40
78905;BMP280;68291;49.602;8.722;2023-04-25T14:47:10;99331.06;;;15.41
78905;BMP280;68291;49.602;8.722;2023-04-25T14:49:42;99336.81;;;15.46
78905;BMP280;68291;49.602;8.722;2023-04-25T14:52:26;99323.72;;;15.48
78905;BMP280;68291;49.602;8.722;2023-04-25T14:55:39;99325.78;;;15.55
78905;BMP280;68291;49.602;8.722;2023-04-25T14:58:16;99339.69;;;15.54
78905;BMP280;68291;49.602;8.722;2023-04-25T15:00:56;99337.41;;;15.62
78905;BMP280;68291;49.602;8.722;2023-04-25T15:03:50;99340.31;;;15.58
78905;BMP280;68291;49.602;8.722;2023-04-25T15:06:25;99342.41;;;15.41
78905;BMP280;68291;49.602;8.722;2023-04-25T15:09:07;99347.25;;;15.33
78905;BMP280;68291;49.602;8.722;2023-04-25T15:11:47;99354.31;;;15.31
78905;BMP280;68291;49.602;8.722;2023-04-25T15:14:26;99349.81;;;15.08
78905;BMP280;68291;49.602;8.722;2023-04-25T15:17:12;99366.69;;;15.01
78905;BMP280;68291;49.602;8.722;2023-04-25T15:19:44;99362.72;;;14.96
78905;BMP280;68291;49.602;8.722;2023-04-25T15:22:29;99352.41;;;15.08
78905;BMP280;68291;49.602;8.722;2023-04-25T15:25:23;99357.91;;;15.16
78905;BMP280;68291;49.602;8.722;2023-04-25T15:28:02;99358.88;;;15.15
78905;BMP280;68291;49.602;8.722;2023-04-25T15:30:48;99358.34;;;15.22
78905;BMP280;68291;49.602;8.722;2023-04-25T15:33:27;99360.66;;;15.39
78905;BMP280;68291;49.602;8.722;2023-04-25T15:36:23;99362.97;;;15.56
78905;BMP280;68291;49.602;8.722;2023-04-25T15:39:03;99365.16;;;15.62
78905;BMP280;68291;49.602;8.722;2023-04-25T15:42:00;99368.25;;;15.54
78905;BMP280;68291;49.602;8.722;2023-04-25T15:45:00;99367.50;;;15.52
78905;BMP280;68291;49.602;8.722;2023-04-25T15:47:56;99372.19;;;15.60
78905;BMP280;68291;49.602;8.722;2023-04-25T15:50:37;99372.63;;;15.66
78905;BMP280;68291;49.602;8.722;2023-04-25T15:53:08;99372.81;;;15.63
78905;BMP280;68291;49.602;8.722;2023-04-25T15:56:02;99373.97;;;15.59
78905;BMP280;68291;49.602;8.722;2023-04-25T15:58:34;99359.63;;;15.41
78905;BMP280;68291;49.602;8.722;2023-04-25T16:01:27;99365.03;;;15.39
78905;BMP280;68291;49.602;8.722;2023-04-25T16:04:04;99366.69;;;15.27